Search for airport 
image banner adimage banner adimage banner ad
image banner ad

5CL4 - Natividad Medical Center

Located in Salinas, United States

ICAO - 5CL4, IATA -

Data provided by Airmate  

General information

Coordinates: N36°41'51" W121°38'4"
Elevation is 70 feet MSL.
Magnetic variation is 13° East
View others Airports in California

Operational data

Special qualification required
Current time UTC:
Current local time:
Weather at : KSNS - Salinas Muni ( 5 km )
TAF: KSNS 221122Z 2212/2312 VRB06KT 6SM BR OVC020 FM221700 28012KT P6SM FEW020 FM222100 29014G19KT P6SM SKC FM230400 31008KT P6SM BKN050 FM230700 VRB04KT P6SM OVC025
View NOTAMs / SUP AIP / TFR affecting this airport [VIEW]
Communications frequencies: [VIEW]

Runways:

Airport contact information

Address: Salinas United States

Satellite view of 5CL4